createdAt,value
2023-10-03T16:09:51.344Z,23.71
2023-10-03T16:12:20.536Z,23.53
2023-10-03T16:14:48.472Z,23.44
2023-10-03T16:17:16.556Z,23.38
2023-10-03T16:19:45.669Z,23.34
2023-10-03T16:22:12.932Z,23.29
2023-10-03T16:24:42.311Z,23.25
2023-10-03T16:27:10.162Z,23.30
2023-10-03T16:29:37.497Z,23.23
2023-10-03T16:32:05.818Z,23.17
2023-10-03T16:34:33.235Z,23.22
2023-10-03T16:37:01.771Z,23.07
2023-10-03T16:39:30.180Z,23.05
2023-10-03T16:42:00.945Z,22.98
2023-10-03T16:44:28.323Z,22.92
2023-10-03T16:46:55.605Z,23.00
2023-10-03T16:49:22.880Z,23.02
2023-10-03T16:51:51.155Z,22.93
2023-10-03T16:54:18.795Z,22.86
2023-10-03T16:56:46.218Z,22.82
2023-10-03T16:59:13.766Z,22.72
2023-10-03T17:01:41.339Z,22.66
2023-10-03T17:04:08.653Z,22.59
2023-10-03T17:06:36.033Z,22.56
2023-10-03T17:09:04.273Z,22.52
2023-10-03T17:11:32.210Z,22.45
2023-10-03T17:14:00.478Z,22.45
2023-10-03T17:16:27.830Z,22.46
2023-10-03T17:18:55.099Z,22.50
2023-10-03T17:21:22.382Z,22.33
2023-10-03T17:23:49.723Z,22.60
2023-10-03T17:26:18.410Z,22.40
2023-10-03T17:28:46.949Z,22.32
2023-10-03T17:31:14.580Z,22.24
2023-10-03T17:33:43.102Z,22.11
2023-10-03T17:36:10.537Z,22.18
2023-10-03T17:38:37.969Z,22.18
2023-10-03T17:41:06.654Z,22.09
2023-10-03T17:43:35.791Z,22.21
2023-10-03T17:46:04.038Z,22.02
2023-10-03T17:48:31.636Z,22.05
2023-10-03T17:50:59.289Z,21.68
2023-10-03T17:53:28.274Z,21.58
2023-10-03T17:55:56.116Z,21.66
2023-10-03T17:58:23.285Z,21.46
2023-10-03T18:00:51.112Z,21.25
2023-10-03T18:03:18.741Z,21.11
2023-10-03T18:05:46.127Z,21.11
2023-10-03T18:08:13.326Z,21.14
2023-10-03T18:10:41.041Z,21.11
2023-10-03T18:13:08.868Z,21.18
2023-10-03T18:15:41.073Z,21.14
2023-10-03T18:18:11.103Z,21.05
2023-10-03T18:20:39.044Z,21.06
2023-10-03T18:23:06.507Z,21.00
2023-10-03T18:25:34.818Z,20.94
2023-10-03T18:28:02.735Z,20.99
2023-10-03T18:30:30.801Z,20.88
2023-10-03T18:33:01.374Z,20.81
2023-10-03T18:35:29.264Z,20.29
2023-10-03T18:37:56.852Z,19.89
2023-10-03T18:40:24.766Z,19.57
2023-10-03T18:42:54.319Z,19.40
2023-10-03T18:45:22.882Z,19.19
2023-10-03T18:47:52.767Z,18.98
2023-10-03T18:50:24.845Z,18.84
2023-10-03T18:52:59.752Z,18.89
2023-10-03T18:55:27.962Z,18.69
2023-10-03T18:58:07.693Z,18.55
2023-10-03T19:00:37.847Z,18.58
2023-10-03T19:03:08.051Z,18.38
2023-10-03T19:05:42.286Z,18.41
2023-10-03T19:08:34.934Z,18.40
2023-10-03T19:11:13.023Z,18.42
2023-10-03T19:13:56.029Z,18.38
2023-10-03T19:16:28.207Z,18.36
2023-10-03T19:19:09.389Z,18.36
2023-10-03T19:21:43.131Z,18.42
2023-10-03T19:24:18.681Z,18.48
2023-10-03T19:26:50.726Z,18.30
2023-10-03T19:29:20.693Z,18.27
2023-10-03T19:31:51.743Z,18.07
2023-10-03T19:34:45.075Z,18.14
2023-10-03T19:37:19.957Z,17.92
2023-10-03T19:39:50.806Z,17.83
2023-10-03T19:42:20.884Z,17.69
2023-10-03T19:44:57.649Z,17.71
2023-10-03T19:47:29.181Z,17.71
2023-10-03T19:49:57.126Z,17.67
2023-10-03T19:52:36.327Z,17.46
2023-10-03T19:55:08.822Z,17.49
2023-10-03T19:57:41.345Z,17.45
2023-10-03T20:01:12.325Z,17.40
2023-10-03T20:03:24.246Z,17.41
2023-10-03T20:05:55.841Z,17.41
2023-10-03T20:08:23.461Z,17.34
2023-10-03T20:10:56.053Z,17.41
2023-10-03T20:13:26.255Z,17.35
2023-10-03T20:15:54.588Z,17.30
2023-10-03T20:18:24.053Z,17.39
2023-10-03T20:20:53.900Z,17.28
2023-10-03T20:23:22.086Z,17.17
2023-10-03T20:25:53.577Z,17.10
2023-10-03T20:28:43.415Z,17.09
2023-10-03T20:31:17.732Z,16.98
2023-10-03T20:33:52.567Z,17.05
2023-10-03T20:36:26.377Z,17.01
2023-10-03T20:39:08.995Z,16.93
2023-10-03T20:41:48.666Z,17.01
2023-10-03T20:44:24.695Z,16.72
2023-10-03T20:47:15.378Z,16.95
2023-10-03T20:49:58.753Z,16.70
2023-10-03T20:53:16.930Z,16.78
2023-10-03T20:55:40.615Z,16.78
2023-10-03T20:58:23.843Z,16.64
2023-10-03T21:01:34.291Z,16.74
2023-10-03T21:04:19.678Z,16.55
2023-10-03T21:09:30.828Z,16.72
2023-10-03T21:10:22.928Z,16.59
2023-10-03T21:32:19.437Z,16.39
2023-10-03T21:35:41.524Z,16.12
2023-10-03T21:38:32.857Z,16.11
2023-10-03T21:58:33.540Z,15.77
2023-10-03T22:01:03.204Z,15.84
2023-10-03T22:03:32.942Z,15.88
2023-10-03T22:06:01.048Z,15.88
2023-10-03T22:11:13.915Z,15.74
2023-10-03T22:13:42.856Z,15.61
2023-10-03T22:16:10.153Z,15.60
2023-10-03T22:18:39.093Z,15.68
2023-10-03T22:21:08.972Z,15.62
2023-10-03T22:23:36.324Z,15.73
2023-10-03T22:26:03.875Z,15.81
2023-10-03T22:28:31.207Z,15.89
2023-10-03T22:30:58.498Z,15.68
2023-10-03T22:33:25.741Z,15.74
2023-10-03T22:35:53.258Z,15.86
2023-10-03T22:38:24.472Z,15.84
2023-10-03T22:40:52.100Z,15.93
2023-10-03T22:43:20.646Z,15.88
2023-10-03T22:45:47.972Z,15.89
2023-10-03T22:48:15.298Z,15.87
2023-10-03T22:50:42.760Z,15.70
2023-10-03T22:53:11.366Z,15.72
2023-10-03T22:55:39.718Z,15.90
2023-10-03T22:58:07.074Z,15.92
2023-10-03T23:00:34.588Z,15.83
2023-10-03T23:03:01.981Z,16.04
2023-10-03T23:05:29.991Z,15.97
2023-10-03T23:07:57.238Z,15.98
2023-10-03T23:10:24.961Z,16.12
2023-10-03T23:12:52.492Z,16.08
2023-10-03T23:15:22.163Z,16.09
2023-10-03T23:17:49.604Z,16.11
2023-10-03T23:20:16.914Z,16.09
2023-10-03T23:22:44.412Z,16.03
2023-10-03T23:25:13.203Z,16.01
2023-10-03T23:27:41.025Z,16.19
2023-10-03T23:30:08.868Z,15.83
2023-10-03T23:32:36.283Z,15.70
2023-10-03T23:35:03.691Z,15.73
2023-10-03T23:37:33.534Z,15.78
2023-10-03T23:40:06.174Z,15.70
2023-10-03T23:42:33.959Z,15.68
2023-10-03T23:45:02.072Z,15.62
2023-10-03T23:47:30.415Z,15.66
2023-10-03T23:50:00.739Z,15.67
2023-10-03T23:52:27.991Z,15.78
2023-10-03T23:54:58.114Z,15.87
2023-10-03T23:57:28.172Z,15.85
2023-10-03T23:59:55.555Z,15.91
